Kenney, Illinois
Current Conditions -  °F | °C
As of 3:35 PM on Wednesday 26 Nov 2014 (Local Time) from KAAA Reporting Station
Light Snow Light Snow  
Wind Chill: -6°   Ceiling: 500
Heat Index: -1°   Visibility: 1mi
Dew Point: -2°   Wind: 10mph
Humidity: 91%   Direction: 80°E
Pressure: 30.07"   Gusts: 17mph
Location:  40.1°N, 89.09°W
Report Text: KAAA 262135Z AUTO 08009G15KT 1SM -SN BKN005 OVC009 M01/M02 A3007 RMK AO2 T10071020
Loading
Personal Weather Stations






























Interactive Weather Map New forecast layout! Learn more

10-Day Weather Forecast

Advertisements
Track Severe Weather on mobile